createdAt,value
2018-11-04T00:00:02.625Z,11.40
2018-11-04T00:02:30.769Z,11.30
2018-11-04T00:04:58.990Z,11.40
2018-11-04T00:07:27.240Z,11.40
2018-11-04T00:09:55.462Z,11.30
2018-11-04T00:12:23.678Z,11.20
2018-11-04T00:14:52.030Z,11.30
2018-11-04T00:17:20.265Z,11.40
2018-11-04T00:19:48.540Z,11.40
2018-11-04T00:22:16.777Z,11.50
2018-11-04T00:24:45.000Z,11.40
2018-11-04T00:27:13.243Z,11.40
2018-11-04T00:29:41.527Z,11.40
2018-11-04T00:32:09.731Z,11.50
2018-11-04T00:34:37.992Z,11.50
2018-11-04T00:37:06.387Z,11.50
2018-11-04T00:39:34.638Z,11.50
2018-11-04T00:42:02.867Z,11.50
2018-11-04T00:44:31.131Z,11.50
2018-11-04T00:46:59.367Z,11.50
2018-11-04T00:49:27.735Z,11.50
2018-11-04T00:51:56.079Z,11.50
2018-11-04T00:54:24.386Z,11.50
2018-11-04T00:56:52.672Z,11.40
2018-11-04T00:59:21.029Z,11.40
2018-11-04T01:01:49.291Z,11.40
2018-11-04T01:04:17.743Z,11.40
2018-11-04T01:06:46.442Z,11.40
2018-11-04T01:09:15.497Z,11.40
2018-11-04T01:11:43.718Z,11.30
2018-11-04T01:14:11.974Z,11.40
2018-11-04T01:16:40.215Z,11.40
2018-11-04T01:19:08.564Z,11.40
2018-11-04T01:21:36.798Z,11.40
2018-11-04T01:24:05.153Z,11.40
2018-11-04T01:26:33.404Z,11.30
2018-11-04T01:29:01.659Z,11.40
2018-11-04T01:31:29.896Z,11.30
2018-11-04T01:33:58.124Z,11.40
2018-11-04T01:36:26.373Z,11.40
2018-11-04T01:38:54.599Z,11.40
2018-11-04T01:41:22.831Z,11.40
2018-11-04T01:43:51.078Z,11.40
2018-11-04T01:46:19.359Z,11.30
2018-11-04T01:48:47.591Z,11.30
2018-11-04T01:51:15.829Z,11.40
2018-11-04T01:53:44.087Z,11.40
2018-11-04T01:56:12.306Z,11.40
2018-11-04T01:58:40.585Z,11.40
2018-11-04T02:01:08.839Z,11.40
2018-11-04T02:03:37.072Z,11.50
2018-11-04T02:06:05.443Z,11.40
2018-11-04T02:08:33.670Z,11.10
2018-11-04T02:11:01.882Z,11.20
2018-11-04T02:13:30.142Z,11.30
2018-11-04T02:15:58.361Z,11.30
2018-11-04T02:18:26.594Z,11.30
2018-11-04T02:20:54.848Z,11.20
2018-11-04T02:23:23.108Z,11.20
2018-11-04T02:25:51.331Z,11.20
2018-11-04T02:28:19.575Z,11.20
2018-11-04T02:30:47.791Z,11.20
2018-11-04T02:33:16.025Z,11.30
2018-11-04T02:35:44.343Z,11.30
2018-11-04T02:38:12.579Z,11.30
2018-11-04T02:40:40.824Z,11.30
2018-11-04T02:43:09.124Z,11.20
2018-11-04T02:45:37.398Z,11.20
2018-11-04T02:48:05.621Z,11.30
2018-11-04T02:50:33.947Z,11.20
2018-11-04T02:53:02.186Z,11.10
2018-11-04T02:55:30.420Z,11.10
2018-11-04T02:57:58.687Z,11.10
2018-11-04T03:00:26.947Z,11.20
2018-11-04T03:02:55.183Z,11.20
2018-11-04T03:05:23.420Z,11.30
2018-11-04T03:07:51.647Z,11.20
2018-11-04T03:10:19.874Z,11.20
2018-11-04T03:12:49.099Z,11.20
2018-11-04T03:15:17.350Z,11.20
2018-11-04T03:17:45.591Z,11.20
2018-11-04T03:20:13.838Z,11.20
2018-11-04T03:22:42.103Z,11.20
2018-11-04T03:25:10.381Z,11.20
2018-11-04T03:27:38.723Z,11.20
2018-11-04T03:30:08.063Z,11.20
2018-11-04T03:32:36.347Z,11.30
2018-11-04T03:35:04.629Z,11.20
2018-11-04T03:37:32.856Z,11.20
2018-11-04T03:40:01.211Z,11.20
2018-11-04T03:42:29.446Z,11.20
2018-11-04T03:44:57.683Z,11.30
2018-11-04T03:47:25.919Z,11.20
2018-11-04T03:49:54.268Z,11.20
2018-11-04T03:52:22.501Z,11.20
2018-11-04T03:54:50.748Z,11.10
2018-11-04T03:57:18.976Z,11.10
2018-11-04T03:59:47.206Z,11.10
2018-11-04T04:02:15.433Z,11.10
2018-11-04T04:04:43.758Z,11.10
2018-11-04T04:07:11.986Z,11.20
2018-11-04T04:09:40.218Z,11.20
2018-11-04T04:12:08.595Z,11.10
2018-11-04T04:14:36.840Z,11.10
2018-11-04T04:17:05.078Z,11.10
2018-11-04T04:19:33.318Z,11.10
2018-11-04T04:22:01.556Z,11.10
2018-11-04T04:24:29.793Z,11.10
2018-11-04T04:26:58.021Z,11.10
2018-11-04T04:29:26.243Z,11.10
2018-11-04T04:31:54.503Z,11.00
2018-11-04T04:34:22.822Z,11.10
2018-11-04T04:36:51.056Z,11.20
2018-11-04T04:39:19.277Z,11.10
2018-11-04T04:41:47.571Z,11.00
2018-11-04T04:44:15.804Z,11.10
2018-11-04T04:46:44.151Z,11.10
2018-11-04T04:49:12.914Z,11.10
2018-11-04T04:51:41.245Z,11.10
2018-11-04T04:54:09.466Z,11.00
2018-11-04T04:56:37.724Z,11.10
2018-11-04T04:59:05.966Z,11.10
2018-11-04T05:01:34.194Z,11.10
2018-11-04T05:04:02.502Z,11.10
2018-11-04T05:06:30.727Z,11.10
2018-11-04T05:08:58.964Z,11.10
2018-11-04T05:11:27.232Z,11.10
2018-11-04T05:13:55.459Z,10.90
2018-11-04T05:16:23.707Z,10.90
2018-11-04T05:18:51.951Z,10.90
2018-11-04T05:21:20.211Z,11.00
2018-11-04T05:23:48.526Z,11.00
2018-11-04T05:26:16.790Z,11.00
2018-11-04T05:28:45.039Z,11.00
2018-11-04T05:31:13.264Z,10.90
2018-11-04T05:33:41.515Z,10.90
2018-11-04T05:36:09.747Z,10.90
2018-11-04T05:38:37.968Z,11.00
2018-11-04T05:41:06.271Z,10.90
2018-11-04T05:43:34.515Z,10.90
2018-11-04T05:46:02.775Z,10.80
2018-11-04T05:48:31.020Z,10.80
2018-11-04T05:50:59.247Z,10.80
2018-11-04T05:53:27.483Z,10.80
2018-11-04T05:55:55.778Z,10.80
2018-11-04T05:58:24.011Z,10.80
2018-11-04T06:00:52.243Z,10.70
2018-11-04T06:03:20.523Z,10.80
2018-11-04T06:05:48.778Z,10.80
2018-11-04T06:08:16.989Z,10.60
2018-11-04T06:10:45.271Z,10.70
2018-11-04T06:13:13.503Z,10.70
2018-11-04T06:15:41.844Z,10.70
2018-11-04T06:18:10.101Z,10.80
2018-11-04T06:20:38.340Z,10.70
2018-11-04T06:23:06.580Z,10.70
2018-11-04T06:25:34.911Z,10.60
2018-11-04T06:28:03.172Z,10.70
2018-11-04T06:30:31.387Z,10.80
2018-11-04T06:32:59.616Z,10.70
2018-11-04T06:35:27.842Z,10.60
2018-11-04T06:37:56.069Z,10.60
2018-11-04T06:40:24.656Z,10.50
2018-11-04T06:42:52.871Z,10.50
2018-11-04T06:45:21.107Z,10.60
2018-11-04T06:47:49.340Z,10.60
2018-11-04T06:50:17.618Z,10.60
2018-11-04T06:52:45.854Z,10.60
2018-11-04T06:55:14.129Z,10.50
2018-11-04T06:57:42.352Z,10.50
2018-11-04T07:00:11.924Z,10.40
2018-11-04T07:02:40.334Z,10.50
2018-11-04T07:05:08.585Z,10.60
2018-11-04T07:07:37.041Z,10.60
2018-11-04T07:10:07.080Z,10.70
2018-11-04T07:12:35.315Z,10.70
2018-11-04T07:15:03.671Z,10.70
2018-11-04T07:17:31.926Z,10.80
2018-11-04T07:20:00.234Z,10.80
2018-11-04T07:22:28.407Z,10.80
2018-11-04T07:24:56.661Z,10.90
2018-11-04T07:27:24.896Z,10.90
2018-11-04T07:29:53.118Z,11.10
2018-11-04T07:32:21.526Z,11.40
2018-11-04T07:34:49.759Z,11.80
2018-11-04T07:37:17.995Z,12.20
2018-11-04T07:39:46.261Z,12.50
2018-11-04T07:42:14.485Z,12.80
2018-11-04T07:44:42.787Z,13.10
2018-11-04T07:47:11.052Z,13.30
2018-11-04T07:49:39.271Z,13.30
2018-11-04T07:52:07.503Z,13.40
2018-11-04T07:54:35.820Z,13.60
2018-11-04T07:57:04.079Z,13.70
2018-11-04T07:59:32.271Z,13.70
2018-11-04T08:02:00.639Z,13.40
2018-11-04T08:04:28.875Z,13.30
2018-11-04T08:06:57.108Z,13.60
2018-11-04T08:09:25.390Z,13.90
2018-11-04T08:11:53.614Z,14.30
2018-11-04T08:14:21.826Z,14.70
2018-11-04T08:16:50.155Z,15.10
2018-11-04T08:19:18.378Z,15.20
2018-11-04T08:21:46.599Z,15.30
2018-11-04T08:24:14.856Z,15.40
2018-11-04T08:26:43.113Z,15.30
2018-11-04T08:29:11.348Z,15.70
2018-11-04T08:31:39.623Z,16.00
2018-11-04T08:34:07.847Z,16.20
2018-11-04T08:36:36.077Z,16.30
2018-11-04T08:39:05.374Z,16.60
2018-11-04T08:41:33.604Z,16.80
2018-11-04T08:44:01.835Z,17.20
2018-11-04T08:46:30.090Z,17.40
2018-11-04T08:48:58.308Z,17.50
2018-11-04T08:51:26.535Z,17.70
2018-11-04T08:53:54.810Z,18.00
2018-11-04T08:56:23.067Z,18.30
2018-11-04T08:58:51.579Z,18.40
2018-11-04T09:01:19.920Z,18.70
2018-11-04T09:03:48.183Z,18.90
2018-11-04T09:06:16.457Z,19.00
2018-11-04T09:08:44.687Z,19.00
2018-11-04T09:11:12.910Z,19.20
2018-11-04T09:13:41.231Z,19.30
2018-11-04T09:16:09.486Z,19.70
2018-11-04T09:18:37.859Z,19.60
2018-11-04T09:21:06.151Z,20.00
2018-11-04T09:23:34.452Z,19.90
2018-11-04T09:26:02.611Z,19.60
2018-11-04T09:28:30.874Z,19.50
2018-11-04T09:30:59.202Z,19.70
2018-11-04T09:33:27.471Z,20.00
2018-11-04T09:35:55.879Z,19.80
2018-11-04T09:38:24.163Z,19.20
2018-11-04T09:40:52.391Z,19.00
2018-11-04T09:43:20.629Z,18.80
2018-11-04T09:45:48.915Z,18.70
2018-11-04T09:48:17.166Z,18.70
2018-11-04T09:50:45.395Z,18.60
2018-11-04T09:53:13.636Z,18.40
2018-11-04T09:55:41.848Z,18.50
2018-11-04T09:58:10.112Z,18.60
2018-11-04T10:00:38.388Z,19.00
2018-11-04T10:03:06.624Z,19.00
2018-11-04T10:05:34.860Z,19.30
2018-11-04T10:08:03.118Z,19.40
2018-11-04T10:10:31.351Z,19.40
2018-11-04T10:12:59.570Z,19.70
2018-11-04T10:15:27.834Z,19.50
2018-11-04T10:17:56.060Z,19.10
2018-11-04T10:20:24.634Z,19.10
2018-11-04T10:22:52.527Z,19.50
2018-11-04T10:25:20.757Z,19.80
2018-11-04T10:27:49.089Z,19.90
2018-11-04T10:30:17.509Z,20.40
2018-11-04T10:32:45.970Z,20.60
2018-11-04T10:35:14.183Z,20.90
2018-11-04T10:37:43.126Z,21.40
2018-11-04T10:40:12.027Z,21.60
2018-11-04T10:42:40.252Z,22.20
2018-11-04T10:45:09.629Z,22.50
2018-11-04T10:47:37.894Z,22.40
2018-11-04T10:50:08.202Z,22.40
2018-11-04T10:52:36.432Z,22.40
2018-11-04T10:55:05.401Z,22.60
2018-11-04T10:57:33.629Z,22.80
2018-11-04T11:00:01.888Z,23.00
2018-11-04T11:02:30.122Z,23.60
2018-11-04T11:04:58.360Z,23.50
2018-11-04T11:07:26.600Z,23.60
2018-11-04T11:09:54.879Z,23.60
2018-11-04T11:12:23.088Z,23.70
2018-11-04T11:14:51.320Z,23.80
2018-11-04T11:17:19.553Z,22.80
2018-11-04T11:19:47.804Z,22.70
2018-11-04T11:22:16.042Z,22.60
2018-11-04T11:24:44.288Z,22.40
2018-11-04T11:27:12.521Z,22.00
2018-11-04T11:29:40.862Z,21.80
2018-11-04T11:32:09.215Z,21.50
2018-11-04T11:34:37.434Z,21.30
2018-11-04T11:37:05.830Z,21.30
2018-11-04T11:39:34.071Z,20.90
2018-11-04T11:42:02.302Z,20.90
2018-11-04T11:44:30.568Z,20.80
2018-11-04T11:46:58.824Z,20.60
2018-11-04T11:49:27.078Z,20.60
2018-11-04T11:51:55.406Z,20.30
2018-11-04T11:54:23.672Z,20.30
2018-11-04T11:56:51.890Z,20.00
2018-11-04T11:59:20.264Z,19.70
2018-11-04T12:01:48.425Z,19.80
2018-11-04T12:04:16.643Z,19.70
2018-11-04T12:06:44.898Z,19.80
2018-11-04T12:09:13.368Z,19.70
2018-11-04T12:11:41.596Z,19.70
2018-11-04T12:14:09.826Z,19.60
2018-11-04T12:16:38.048Z,19.60
2018-11-04T12:19:06.277Z,19.60
2018-11-04T12:21:34.770Z,19.50
2018-11-04T12:24:02.992Z,19.40
2018-11-04T12:26:31.218Z,19.40
2018-11-04T12:28:59.495Z,19.30
2018-11-04T12:31:27.731Z,19.30
2018-11-04T12:33:55.955Z,19.20
2018-11-04T12:36:24.223Z,19.20
2018-11-04T12:38:52.450Z,19.10
2018-11-04T12:41:20.698Z,19.20
2018-11-04T12:43:49.023Z,19.00
2018-11-04T12:46:17.255Z,18.90
2018-11-04T12:48:45.475Z,18.90
2018-11-04T12:51:13.723Z,18.60
2018-11-04T12:53:42.027Z,18.70
2018-11-04T12:56:10.267Z,18.80
2018-11-04T12:58:38.511Z,18.70
2018-11-04T13:01:06.743Z,18.40
2018-11-04T13:03:34.968Z,18.60
2018-11-04T13:06:03.277Z,18.50
2018-11-04T13:08:31.514Z,18.50
2018-11-04T13:10:59.759Z,18.40
2018-11-04T13:13:28.004Z,18.50
2018-11-04T13:15:56.238Z,18.60
2018-11-04T13:18:24.475Z,18.50
2018-11-04T13:20:53.067Z,18.50
2018-11-04T13:23:21.302Z,18.40
2018-11-04T13:28:24.332Z,18.30
2018-11-04T13:30:52.656Z,18.00
2018-11-04T13:33:20.913Z,17.90
2018-11-04T13:35:49.198Z,17.90
2018-11-04T13:38:17.404Z,17.90
2018-11-04T13:40:45.635Z,17.90
2018-11-04T13:43:13.939Z,17.90
2018-11-04T13:45:42.134Z,17.80
2018-11-04T13:48:10.366Z,17.70
2018-11-04T13:50:38.739Z,17.70
2018-11-04T13:53:06.957Z,17.60
2018-11-04T13:55:35.188Z,17.60
2018-11-04T13:58:03.453Z,17.40
2018-11-04T14:00:31.698Z,17.40
2018-11-04T14:03:00.076Z,17.40
2018-11-04T14:05:28.500Z,17.10
2018-11-04T14:07:56.787Z,17.10
2018-11-04T14:10:25.002Z,17.00
2018-11-04T14:12:53.285Z,16.90
2018-11-04T14:15:21.461Z,16.90
2018-11-04T14:17:49.718Z,16.90
2018-11-04T14:20:17.970Z,16.80
2018-11-04T14:22:46.194Z,16.80
2018-11-04T14:25:14.420Z,16.70
2018-11-04T14:27:42.658Z,16.60
2018-11-04T14:30:12.911Z,16.60
2018-11-04T14:32:41.257Z,16.60
2018-11-04T14:35:10.420Z,16.50
2018-11-04T14:37:39.681Z,16.30
2018-11-04T14:40:09.296Z,16.20
2018-11-04T14:42:37.955Z,16.30
2018-11-04T14:45:06.878Z,16.30
2018-11-04T14:47:35.229Z,16.20
2018-11-04T14:50:03.691Z,16.10
2018-11-04T14:52:33.571Z,16.00
2018-11-04T14:55:01.819Z,16.10
2018-11-04T14:57:30.050Z,15.90
2018-11-04T14:59:58.270Z,15.80
2018-11-04T15:02:26.490Z,15.60
2018-11-04T15:04:54.727Z,15.40
2018-11-04T15:07:22.992Z,15.40
2018-11-04T15:09:51.182Z,15.30
2018-11-04T15:12:19.411Z,15.10
2018-11-04T15:14:47.677Z,14.80
2018-11-04T15:17:15.932Z,14.70
2018-11-04T15:19:44.187Z,14.60
2018-11-04T15:22:12.435Z,14.50
2018-11-04T15:24:40.674Z,14.20
2018-11-04T15:27:09.067Z,14.20
2018-11-04T15:29:37.298Z,14.20
2018-11-04T15:32:05.645Z,13.90
2018-11-04T15:34:34.198Z,14.00
2018-11-04T15:37:02.327Z,13.90
2018-11-04T15:39:30.640Z,13.90
2018-11-04T15:41:59.673Z,13.90
2018-11-04T15:44:27.933Z,13.70
2018-11-04T15:46:56.192Z,13.70
2018-11-04T15:49:24.480Z,13.60
2018-11-04T15:51:52.717Z,13.50
2018-11-04T15:54:21.044Z,13.50
2018-11-04T15:56:49.360Z,13.10
2018-11-04T15:59:17.611Z,13.20
2018-11-04T16:01:45.872Z,13.20
2018-11-04T16:04:14.155Z,13.20
2018-11-04T16:06:42.605Z,13.20
2018-11-04T16:09:10.953Z,13.00
2018-11-04T16:11:39.216Z,12.90
2018-11-04T16:14:07.487Z,12.80
2018-11-04T16:16:35.743Z,12.70
2018-11-04T16:19:04.182Z,12.60
2018-11-04T16:21:32.420Z,12.60
2018-11-04T16:24:00.691Z,12.40
2018-11-04T16:26:28.983Z,12.50
2018-11-04T16:28:57.310Z,12.40
2018-11-04T16:31:25.580Z,12.30
2018-11-04T16:33:53.823Z,12.20
2018-11-04T16:36:22.068Z,12.30
2018-11-04T16:38:50.310Z,12.30
2018-11-04T16:41:18.563Z,12.20
2018-11-04T16:43:46.854Z,12.10
2018-11-04T16:46:15.043Z,12.20
2018-11-04T16:48:43.354Z,12.10
2018-11-04T16:51:11.696Z,12.00
2018-11-04T16:53:39.919Z,11.80
2018-11-04T16:56:08.327Z,11.80
2018-11-04T16:58:36.558Z,11.90
2018-11-04T17:01:05.267Z,11.90
2018-11-04T17:03:33.904Z,11.60
2018-11-04T17:06:02.166Z,11.70
2018-11-04T17:08:30.412Z,11.60
2018-11-04T17:10:58.674Z,11.70
2018-11-04T17:13:26.924Z,11.70
2018-11-04T17:15:55.155Z,11.70
2018-11-04T17:18:23.501Z,11.70
2018-11-04T17:20:51.718Z,11.80
2018-11-04T17:23:19.959Z,11.80
2018-11-04T17:25:48.487Z,11.80
2018-11-04T17:28:16.717Z,11.90
2018-11-04T17:30:44.992Z,11.80
2018-11-04T17:33:13.288Z,11.80
2018-11-04T17:35:41.538Z,11.80
2018-11-04T17:38:09.766Z,11.90
2018-11-04T17:40:37.999Z,11.80
2018-11-04T17:43:06.244Z,11.70
2018-11-04T17:45:34.500Z,11.60
2018-11-04T17:48:02.769Z,11.50
2018-11-04T17:50:31.017Z,11.40
2018-11-04T17:52:59.295Z,11.20
2018-11-04T17:55:27.551Z,11.20
2018-11-04T17:57:55.790Z,11.30
2018-11-04T18:00:24.052Z,11.30
2018-11-04T18:02:52.389Z,11.30
2018-11-04T18:05:20.662Z,11.10
2018-11-04T18:07:48.898Z,11.10
2018-11-04T18:10:17.259Z,11.00
2018-11-04T18:12:45.494Z,11.00
2018-11-04T18:15:14.840Z,11.00
2018-11-04T18:17:43.107Z,11.00
2018-11-04T18:20:11.827Z,11.00
2018-11-04T18:22:40.075Z,10.80
2018-11-04T18:25:09.739Z,10.90
2018-11-04T18:27:37.996Z,10.70
2018-11-04T18:30:08.583Z,10.70
2018-11-04T18:32:36.844Z,10.70
2018-11-04T18:35:05.201Z,10.80
2018-11-04T18:37:33.475Z,10.70
2018-11-04T18:40:01.773Z,10.80
2018-11-04T18:42:30.018Z,10.70
2018-11-04T18:44:58.279Z,10.70
2018-11-04T18:47:26.694Z,10.50
2018-11-04T18:49:54.954Z,10.60
2018-11-04T18:52:23.286Z,10.40
2018-11-04T18:54:51.535Z,10.40
2018-11-04T18:57:19.877Z,10.50
2018-11-04T18:59:48.159Z,10.60
2018-11-04T19:02:16.485Z,10.50
2018-11-04T19:04:44.755Z,10.50
2018-11-04T19:07:12.974Z,10.50
2018-11-04T19:09:41.268Z,10.50
2018-11-04T19:12:09.507Z,10.50
2018-11-04T19:14:37.756Z,10.50
2018-11-04T19:17:06.023Z,10.40
2018-11-04T19:19:34.258Z,10.50
2018-11-04T19:22:02.687Z,10.40
2018-11-04T19:24:30.971Z,10.30
2018-11-04T19:26:59.303Z,10.40
2018-11-04T19:29:27.515Z,10.50
2018-11-04T19:31:55.768Z,10.50
2018-11-04T19:34:24.033Z,10.50
2018-11-04T19:36:52.268Z,10.40
2018-11-04T19:39:20.606Z,10.40
2018-11-04T19:41:48.974Z,10.40
2018-11-04T19:44:17.069Z,10.50
2018-11-04T19:46:45.477Z,10.30
2018-11-04T19:49:13.767Z,10.40
2018-11-04T19:51:41.999Z,10.40
2018-11-04T19:55:39.816Z,10.40
2018-11-04T19:58:08.075Z,10.40
2018-11-04T20:00:36.312Z,10.30
2018-11-04T20:03:04.731Z,10.30
2018-11-04T20:05:33.012Z,10.20
2018-11-04T20:08:01.235Z,10.30
2018-11-04T20:10:29.604Z,10.10
2018-11-04T20:13:03.074Z,10.20
2018-11-04T20:15:31.412Z,10.10
2018-11-04T20:17:59.677Z,10.20
2018-11-04T20:20:27.987Z,10.20
2018-11-04T20:22:56.308Z,10.10
2018-11-04T20:25:29.930Z,10.00
2018-11-04T20:27:58.191Z,10.00
2018-11-04T20:30:26.434Z,10.00
2018-11-04T20:33:00.020Z,9.90
2018-11-04T20:35:28.236Z,9.90
2018-11-04T20:37:56.460Z,9.80
2018-11-04T20:40:30.103Z,10.00
2018-11-04T20:42:58.327Z,9.90
2018-11-04T20:45:26.578Z,9.90
2018-11-04T20:48:00.233Z,9.80
2018-11-04T20:50:33.652Z,9.70
2018-11-04T20:53:01.898Z,9.80
2018-11-04T20:55:35.568Z,9.80
2018-11-04T20:58:03.964Z,9.80
2018-11-04T21:00:32.033Z,9.80
2018-11-04T21:03:00.268Z,9.60
2018-11-04T21:05:28.511Z,9.70
2018-11-04T21:07:56.727Z,9.60
2018-11-04T21:10:24.946Z,9.50
2018-11-04T21:12:53.207Z,9.50
2018-11-04T21:15:21.442Z,9.40
2018-11-04T21:17:49.928Z,9.40
2018-11-04T21:20:18.294Z,9.40
2018-11-04T21:22:46.523Z,9.50
2018-11-04T21:25:14.773Z,9.50
2018-11-04T21:27:42.969Z,9.40
2018-11-04T21:30:12.526Z,9.40
2018-11-04T21:32:40.871Z,9.50
2018-11-04T21:35:09.320Z,9.40
2018-11-04T21:37:37.559Z,9.30
2018-11-04T21:40:07.207Z,9.30
2018-11-04T21:42:35.525Z,9.40
2018-11-04T21:45:03.714Z,9.30
2018-11-04T21:47:31.935Z,9.30
2018-11-04T21:50:00.201Z,9.20
2018-11-04T21:52:28.419Z,9.30
2018-11-04T21:54:56.763Z,9.30
2018-11-04T21:57:25.006Z,9.30
2018-11-04T21:59:53.216Z,9.30
2018-11-04T22:02:21.487Z,9.30
2018-11-04T22:04:49.791Z,9.20
2018-11-04T22:07:17.878Z,9.20
2018-11-04T22:09:46.127Z,9.20
2018-11-04T22:12:14.652Z,9.20
2018-11-04T22:14:42.863Z,9.00
2018-11-04T22:17:11.095Z,9.10
2018-11-04T22:19:39.379Z,9.20
2018-11-04T22:22:07.604Z,9.10
2018-11-04T22:24:35.853Z,9.10
2018-11-04T22:27:04.090Z,9.10
2018-11-04T22:29:32.307Z,9.10
2018-11-04T22:32:00.533Z,9.10
2018-11-04T22:34:28.798Z,9.10
2018-11-04T22:36:57.012Z,9.10
2018-11-04T22:39:25.255Z,9.00
2018-11-04T22:41:53.493Z,8.90
2018-11-04T22:44:21.717Z,8.90
2018-11-04T22:46:49.934Z,8.90
2018-11-04T22:49:18.189Z,9.00
2018-11-04T22:51:46.421Z,8.90
2018-11-04T22:54:14.634Z,8.80
2018-11-04T22:56:43.074Z,8.80
2018-11-04T22:59:11.180Z,8.70
2018-11-04T23:01:39.520Z,8.70
2018-11-04T23:04:07.795Z,8.70
2018-11-04T23:06:35.966Z,8.60
2018-11-04T23:09:06.524Z,8.60
2018-11-04T23:11:34.865Z,8.60
2018-11-04T23:14:03.127Z,8.60
2018-11-04T23:16:31.321Z,8.50
2018-11-04T23:18:59.540Z,8.50
2018-11-04T23:21:27.860Z,8.60
2018-11-04T23:23:56.070Z,8.40
2018-11-04T23:26:24.619Z,8.40
2018-11-04T23:28:52.850Z,8.40
2018-11-04T23:31:21.080Z,8.30
2018-11-04T23:33:49.377Z,8.30
2018-11-04T23:36:17.626Z,8.30
2018-11-04T23:38:45.835Z,8.40
2018-11-04T23:41:14.071Z,8.40
2018-11-04T23:43:42.342Z,8.40
2018-11-04T23:46:10.582Z,8.40
2018-11-04T23:48:38.803Z,8.40
2018-11-04T23:51:07.026Z,8.40
2018-11-04T23:53:35.255Z,8.30
2018-11-04T23:56:03.506Z,8.30
2018-11-04T23:58:31.748Z,8.30
